Latest Weather Observations for Inner Beacon

IDQ60801

Issued at 9:13 pm EST Saturday 9 May 2026 (issued every 10 minutes, with the page automatically refreshed every 10 minutes)

About weather observations | Map of weather stations | Latest weather observations for QLD | Other Formats
Station Details ID: 040926 Name: INNER RECIPROCAL MARKER Lat: -27.26 Lon: 153.24 Height: 10.0 m
Data from the previous 72 hours. | See also: Recent months at Inner Beacon
Date/Time
EST
Temp
°C
App
Temp
°C
Dew
Point
°C
Rel
Hum
%
Delta-T
°C
Wind Press
QNH
hPa
Press
MSL
hPa
Rain since
9am
mm
Dir  Spd
km/h
Gust
km/h
Spd
kts
Gust
kts
09/09:00pm - - - - - SSE 15 19 8 10 - - -
09/08:30pm - - - - - SE 11 17 6 9 - - -
09/08:00pm - - - - - SE 13 17 7 9 - - -
09/07:30pm - - - - - SE 15 19 8 10 - - -
09/07:00pm - - - - - SE 15 19 8 10 - - -
09/06:30pm - - - - - SE 17 20 9 11 - - -
09/06:00pm - - - - - SE 17 20 9 11 - - -
09/05:30pm - - - - - SE 15 17 8 9 - - -
09/05:00pm - - - - - SE 17 22 9 12 - - -
09/04:30pm - - - - - SE 17 22 9 12 - - -
09/04:00pm - - - - - SE 17 22 9 12 - - -
09/03:30pm - - - - - SSE 19 20 10 11 - - -
09/03:00pm - - - - - SSE 19 22 10 12 - - -
09/02:30pm - - - - - SSE 19 22 10 12 - - -
09/02:00pm - - - - - SSE 19 22 10 12 - - -
09/01:30pm - - - - - SSE 22 24 12 13 - - -
09/01:00pm - - - - - SSE 20 24 11 13 - - -
09/12:30pm - - - - - S 20 24 11 13 - - -
09/12:00pm - - - - - SSE 22 26 12 14 - - -
09/11:30am - - - - - S 20 24 11 13 - - -
09/11:00am - - - - - SSW 19 24 10 13 - - -
09/10:30am - - - - - S 20 22 11 12 - - -
09/10:00am - - - - - SSW 20 24 11 13 - - -
09/09:30am - - - - - SSW 22 24 12 13 - - -
09/09:00am - - - - - SSW 20 24 11 13 - - -
09/08:30am - - - - - SSW 22 26 12 14 - - -
09/08:00am - - - - - SSW 22 24 12 13 - - -
09/07:30am - - - - - SSW 22 26 12 14 - - -
09/07:00am - - - - - SSW 22 26 12 14 - - -
09/06:30am - - - - - SSW 22 26 12 14 - - -
09/06:00am - - - - - SSW 20 24 11 13 - - -
09/05:30am - - - - - SSW 22 28 12 15 - - -
09/05:00am - - - - - SSW 24 28 13 15 - - -
09/04:30am - - - - - SSW 22 26 12 14 - - -
09/04:00am - - - - - SSW 22 28 12 15 - - -
09/03:30am - - - - - S 22 26 12 14 - - -
09/03:00am - - - - - S 22 26 12 14 - - -
09/02:30am - - - - - SSW 20 24 11 13 - - -
09/02:00am - - - - - SSW 13 17 7 9 - - -
09/01:30am - - - - - SSW 17 20 9 11 - - -
09/01:00am - - - - - SW 11 15 6 8 - - -
09/12:30am - - - - - WSW 15 17 8 9 - - -
09/12:00am - - - - - W 13 17 7 9 - - -
 
Date/Time
EST
Temp
°C
App
Temp
°C
Dew
Point
°C
Rel
Hum
%
Delta-T
°C
Wind Press
QNH
hPa
Press
MSL
hPa
Rain since
9am
mm
Dir  Spd
km/h
Gust
km/h
Spd
kts
Gust
kts
08/11:30pm - - - - - W 13 17 7 9 - - -
08/11:00pm - - - - - WSW 15 19 8 10 - - -
08/10:30pm - - - - - W 11 15 6 8 - - -
08/10:00pm - - - - - WNW 11 17 6 9 - - -
08/09:30pm - - - - - NNW 13 17 7 9 - - -
08/09:00pm - - - - - NW 13 17 7 9 - - -
08/08:30pm - - - - - NNW 17 19 9 10 - - -
08/08:00pm - - - - - N 13 15 7 8 - - -
08/07:30pm - - - - - N 15 17 8 9 - - -
08/07:00pm - - - - - NNE 15 19 8 10 - - -
08/06:30pm - - - - - N 17 19 9 10 - - -
08/06:00pm - - - - - NNE 15 19 8 10 - - -
08/05:30pm - - - - - NNE 11 15 6 8 - - -
08/05:00pm - - - - - N 11 15 6 8 - - -
08/04:30pm - - - - - N 7 9 4 5 - - -
08/04:00pm - - - - - ENE 7 9 4 5 - - -
08/03:30pm - - - - - ENE 7 11 4 6 - - -
08/03:00pm - - - - - NE 7 11 4 6 - - -
08/02:30pm - - - - - CALM 0 0 0 0 - - -
08/02:00pm - - - - - NNE 2 4 1 2 - - -
08/01:30pm - - - - - NNE 2 4 1 2 - - -
08/01:00pm - - - - - CALM 0 0 0 0 - - -
08/12:30pm - - - - - SSW 2 4 1 2 - - -
08/12:00pm - - - - - SW 7 9 4 5 - - -
08/11:30am - - - - - WSW 6 11 3 6 - - -
08/11:00am - - - - - SW 7 13 4 7 - - -
08/10:30am - - - - - SW 15 19 8 10 - - -
08/10:00am - - - - - SW 19 24 10 13 - - -
08/09:30am - - - - - SW 20 24 11 13 - - -
08/09:00am - - - - - SW 22 26 12 14 - - -
08/08:30am - - - - - SW 22 28 12 15 - - -
08/08:00am - - - - - SW 22 28 12 15 - - -
08/07:30am - - - - - SW 24 28 13 15 - - -
08/07:00am - - - - - WSW 24 30 13 16 - - -
08/06:30am - - - - - SW 28 33 15 18 - - -
08/06:00am - - - - - SW 28 33 15 18 - - -
08/05:30am - - - - - WSW 28 32 15 17 - - -
08/05:00am - - - - - WSW 30 35 16 19 - - -
08/04:30am - - - - - WSW 30 35 16 19 - - -
08/04:00am - - - - - SW 33 39 18 21 - - -
08/03:30am - - - - - SW 33 41 18 22 - - -
08/03:00am - - - - - WSW 30 39 16 21 - - -
08/02:30am - - - - - WSW 30 35 16 19 - - -
08/02:00am - - - - - WSW 26 32 14 17 - - -
08/01:30am - - - - - WSW 32 39 17 21 - - -
08/01:00am - - - - - W 26 33 14 18 - - -
08/12:30am - - - - - WSW 30 37 16 20 - - -
08/12:00am - - - - - WSW 30 37 16 20 - - -
 
Date/Time
EST
Temp
°C
App
Temp
°C
Dew
Point
°C
Rel
Hum
%
Delta-T
°C
Wind Press
QNH
hPa
Press
MSL
hPa
Rain since
9am
mm
Dir  Spd
km/h
Gust
km/h
Spd
kts
Gust
kts
07/11:30pm - - - - - WSW 30 37 16 20 - - -
07/11:00pm - - - - - WSW 30 35 16 19 - - -
07/10:30pm - - - - - W 41 50 22 27 - - -
07/10:00pm - - - - - W 32 39 17 21 - - -
07/09:30pm - - - - - W 33 43 18 23 - - -
07/09:00pm - - - - - W 28 32 15 17 - - -
07/08:30pm - - - - - W 26 30 14 16 - - -
07/08:00pm - - - - - W 33 37 18 20 - - -
07/07:30pm - - - - - W 33 37 18 20 - - -
07/07:00pm - - - - - W 33 43 18 23 - - -
07/06:30pm - - - - - W 32 39 17 21 - - -
07/06:00pm - - - - - W 24 35 13 19 - - -
07/05:30pm - - - - - W 15 19 8 10 - - -
07/05:00pm - - - - - WSW 22 26 12 14 - - -
07/04:30pm - - - - - WSW 17 20 9 11 - - -
07/04:00pm - - - - - W 19 22 10 12 - - -
07/03:30pm - - - - - WSW 19 24 10 13 - - -
07/03:00pm - - - - - WSW 19 20 10 11 - - -
07/02:30pm - - - - - NNE 4 7 2 4 - - -
07/02:00pm - - - - - N 9 13 5 7 - - -
07/01:30pm - - - - - N 7 11 4 6 - - -
07/01:00pm - - - - - NNW 9 11 5 6 - - -
07/12:30pm - - - - - W 9 11 5 6 - - -
07/12:00pm - - - - - W 15 19 8 10 - - -
07/11:30am - - - - - WNW 17 19 9 10 - - -
07/11:00am - - - - - WNW 13 17 7 9 - - -
07/10:30am - - - - - WNW 13 15 7 8 - - -
07/10:00am - - - - - W 19 20 10 11 - - -
07/09:30am - - - - - W 19 22 10 12 - - -
07/09:00am - - - - - WSW 13 19 7 10 - - -
07/08:30am - - - - - WSW 15 17 8 9 - - -
07/08:00am - - - - - SSW 9 11 5 6 - - -
07/07:30am - - - - - SW 15 19 8 10 - - -
07/07:00am - - - - - SW 13 17 7 9 - - -
07/06:30am - - - - - WSW 17 20 9 11 - - -
07/06:00am - - - - - SW 19 20 10 11 - - -
07/05:30am - - - - - SW 19 22 10 12 - - -
07/05:00am - - - - - SW 17 20 9 11 - - -
07/04:30am - - - - - SW 15 19 8 10 - - -
07/04:00am - - - - - SSW 15 17 8 9 - - -
07/03:30am - - - - - SW 15 17 8 9 - - -
07/03:00am - - - - - SW 19 20 10 11 - - -
07/02:30am - - - - - SW 13 15 7 8 - - -
07/02:00am - - - - - SW 11 15 6 8 - - -
07/01:30am - - - - - SW 15 19 8 10 - - -
07/01:00am - - - - - S 17 20 9 11 - - -
07/12:30am - - - - - S 17 19 9 10 - - -
07/12:00am - - - - - S 15 17 8 9 - - -
 
Date/Time
EST
Temp
°C
App
Temp
°C
Dew
Point
°C
Rel
Hum
%
Delta-T
°C
Wind Press
QNH
hPa
Press
MSL
hPa
Rain since
9am
mm
Dir  Spd
km/h
Gust
km/h
Spd
kts
Gust
kts
06/11:30pm - - - - - S 15 17 8 9 - - -
06/11:00pm - - - - - S 17 19 9 10 - - -
06/10:30pm - - - - - S 17 19 9 10 - - -
06/10:00pm - - - - - S 15 19 8 10 - - -
06/09:30pm - - - - - SSE 11 13 6 7 - - -

Other formats

Comma delimited format used in spreadsheet applications
http://www.bom.gov.au/fwo/IDQ60801/IDQ60801.94590.axf

JavaScript Object Notation format (JSON) in row-major order
http://www.bom.gov.au/fwo/IDQ60801/IDQ60801.94590.json

Data quality

Most of these data are generated automatically and are frequently updated. Quality checks on data are not normally performed. It is possible for incorrect values to appear. Refer to information at About Latest Weather Observations and please check the disclaimer before using these data.